Etusivu
METAR-TAF:

METAR-TAF

Lentoasemat :

Taos Regional Airport

Taos, New Mexico, Yhdysvallat

Leveyspiiri: 36-27N, Pituuspiiri: 105-40W, korkeus merenpinnasta: 2161 m

Tämänhetkinen sää

Tämä raportti tehtiin 31 minuuttia sitten, kello 18.20 UTC
Tuuli 11 kn lännestä/luoteesta puuskistuen 26 kn:hen
Lämpötila 21°C
Kosteus 16%
Ilmanpaine 1019 hPa
Näkyvyys: 16.1 km
selkeää

METAR: KSKX 261820Z AUTO 29011G26KT 10SM CLR 21/M06 A3010 RMK AO2 PK WND 27026/1812 WSHFT 1800

Aika: 12:51 (18:51 UTC)


TAF: puuttuu

Säähavainnot ja -ennusteet yli 4000 lentoasemalta (METAR- ja TAF-raportit).

Käytössä olevat sääasemat on merkitty karttaan keltaisilla ja punaisilla pisteillä.

Aseta hiiri pisteen päälle nähdäksesi sääaseman nimen.

Klikkaa sitten nähdäksesi säähavainnot ja -ennusteet.

Kartan vaihtaminen: klikkaa mustalla rastilla varustettuja vihreitä pisteitä, niin voit zoomata sisään; viivalla varustettua vihreää pistettä, niin voit zoomata ulos tai vihreitä nuolia, niin pääset viereisille kartoille.


METAR-TAF: